x

Lake Of The Woods (45148) Weather Station

9:00pm - Sun 22nd Oct 2017 All times are UTC.

  • Peak Period 2s
  • Wind
    4mph, 9mph gusts
  • Sea Temp 55°f
  • Air Temp 56°f
  • Sea Pressure 1004.6mb

More Historic Weather Station data

Upgrade to MSW Pro to gain access to the past 30 days of data for over 8000 Wavebouys and Weather Stations around the globe.

Join

Comparision Forecast

View Surf forecast
   
Sun 10/22 9:00pm  -  2s 4 9 mph 1004.6mb 55f 56f
8:00pm  -  2s 9 13 mph 1004.8mb 52f 54f
7:00pm  -  2s 9 11 mph 1005mb 50f 52f
6:00pm  -  2s 9 18 mph 1005.1mb 49f 50f
5:00pm  -  2s 9 16 mph 1005mb 48f 48f
4:00pm  -  2s 9 13 mph 1005.1mb 48f 46f
3:00pm  -  2s 9 13 mph 1004.5mb 48f 47f
2:00pm  -  2s 11 18 mph 1003mb 48f 47f
1:00pm  -  2s 7 11 mph 1002.4mb 48f 46f
12:00pm  -  2s 4 9 mph 1001.9mb 49f 46f
11:00am  -  2s 7 11 mph 1001.9mb 50f 47f
10:00am  -  5s 2 7 mph 1001.2mb 51f 48f
9:00am  -  2s 7 11 mph 1001.3mb 52f 49f
8:00am  -  2s 4 7 mph 1001.5mb 53f 51f
7:00am  -  2s  -  4 mph 1001.2mb 54f 50f
6:00am  -  2s  -  2 mph 1001.2mb 55f 51f
5:00am  -  2s 4 7 mph 1000.5mb 56f 53f
4:00am  -  2s 4 9 mph 999.8mb 57f 54f
3:00am  -  2s  -  4 mph 999.8mb 58f 55f
2:00am  -  2s 4 7 mph 999.5mb 60f 55f
1:00am  -  2s 4 7 mph 999mb 60f 57f
12:00am  -  2s  -  4 mph 999.3mb 61f 58f
Sat 10/21 11:00pm  -  2s  -  4 mph 998.6mb 62f 59f
10:00pm  -  4s 4 9 mph 997.8mb 62f 61f
9:00pm  -  2s 2 7 mph 997.5mb 62f 62f
8:00pm  -  2s 7 11 mph 997.2mb 62f 63f
7:00pm  -  2s 7 13 mph 997.3mb 62f 63f
6:00pm  -  2s 7 13 mph 997.4mb 62f 63f
5:00pm  -  2s 7 16 mph 997.6mb 62f 63f
4:00pm  -  2s 7 13 mph 997.6mb 61f 62f
3:00pm  -  2s 7 18 mph 997.5mb 61f 62f
2:00pm  -  3s 9 18 mph 997.4mb 61f 62f
1:00pm  -  2s 9 16 mph 997.4mb 61f 61f
12:00pm  -  2s 7 13 mph 997.7mb 61f 62f
11:00am  -  2s 7 11 mph 997.6mb 61f 62f
10:00am  -  2s 7 13 mph 997.5mb 61f 63f
9:00am  -  2s 9 16 mph 997.1mb 61f 64f
8:00am  -  2s 9 13 mph 997.6mb 61f 65f
7:00am  -  4s 9 13 mph 997.8mb 60f 65f
6:00am  -  6s 9 16 mph 998.1mb 60f 65f
5:00am  -  2s 7 11 mph 998.4mb 60f 65f
4:00am  -  2s 7 11 mph 998.5mb 60f 66f
3:00am  -  2s 7 11 mph 998.3mb 60f 67f
2:00am  -  2s 7 13 mph 997.9mb 59f 68f
1:00am  -  2s 7 18 mph 997.8mb 59f 69f
12:00am  -  2s 7 11 mph 997.6mb 59f 69f
Fri 10/20 11:00pm  -  2s 4 7 mph 997.5mb 60f 68f
10:00pm  -  2s 9 11 mph 997.8mb 60f 71f
9:00pm  -  2s 11 16 mph 998.3mb 59f 71f
8:00pm  -  8s 11 18 mph 999mb 57f 68f
7:00pm  -  7s 9 16 mph 1000.3mb 55f 65f
6:00pm 0.3ft 3s 9 13 mph 1001.3mb 54f 60f
5:00pm 0.3ft 2s 7 9 mph 1002.6mb 53f 58f
4:00pm 0.3ft 2s 11 13 mph 1003.8mb 53f 56f
3:00pm 0.3ft 2s 13 16 mph 1004.5mb 53f 54f
2:00pm 0.3ft 2s 11 13 mph 1005.3mb 53f 53f
1:00pm 0.3ft 2s 11 13 mph 1005.3mb 53f 53f
12:00pm  -  3s 7 9 mph 1005.8mb 53f 52f
11:00am  -  3s 7 9 mph 1006.1mb 53f 52f
10:00am  -  2s 7 9 mph 1006.3mb 53f 53f
9:00am  -  2s 7 9 mph 1006.5mb 53f 53f
8:00am  -  2s 4 7 mph 1006.9mb 53f 54f
7:00am  -  2s 4 4 mph 1007.1mb 53f 56f
6:00am  -  3s 4 4 mph 1006.9mb 53f 56f
5:00am  -  2s 9 9 mph 1006.8mb 53f 56f
4:00am  -  4s 2 4 mph 1007.2mb 53f 55f
3:00am  -  2s 9 9 mph 1007.2mb 53f 56f
2:00am  -  2s 4 7 mph 1007.3mb 53f 56f
1:00am  -  2s 7 9 mph 1007.4mb 53f 57f
12:00am  -  3s 7 9 mph 1007.5mb 53f 56f
Thu 10/19 11:00pm  -  3s 9 11 mph 1007.7mb 53f 57f
10:00pm  -  3s 7 9 mph 1008mb 53f 57f
9:00pm 0.3ft 3s 9 11 mph 1009mb 53f 56f
8:00pm 0.3ft 3s 9 9 mph 1009.4mb 53f 56f
7:00pm  -  3s 9 9 mph 1010mb 53f 54f
6:00pm  -  3s 9 11 mph 1011.2mb 53f 51f
5:00pm  -  2s 9 11 mph 1012.6mb 53f 49f
4:00pm  -  3s 4 7 mph 1012.7mb 53f 47f
3:00pm 0.3ft 2s 9 9 mph 1012.3mb 53f 46f
2:00pm 0.3ft 2s 9 11 mph 1012.2mb 53f 44f
1:00pm 0.7ft 2s 13 16 mph 1011.9mb 53f 44f
12:00pm 0.7ft 2s 13 18 mph 1011.2mb 53f 45f
11:00am 0.7ft 2s 13 18 mph 1010.6mb 53f 46f
10:00am 0.7ft 2s 18 22 mph 1009.9mb 53f 47f
9:00am 0.7ft 2s 18 22 mph 1008.8mb 53f 48f
8:00am 1ft 2s 20 27 mph 1008.2mb 53f 49f
7:00am 1ft 2s 20 27 mph 1007.5mb 53f 49f
6:00am 1ft 2s 22 29 mph 1006.7mb 53f 50f
5:00am 1ft 2s 22 29 mph 1006.1mb 53f 51f
4:00am 1.3ft 3s 25 29 mph 1005.3mb 53f 51f
3:00am 1.3ft 3s 22 29 mph 1004.6mb 53f 52f
2:00am 1.3ft 3s 25 31 mph 1003.9mb 53f 53f
1:00am 1.3ft 3s 25 31 mph 1003.4mb 53f 53f
12:00am 1.6ft 3s 22 29 mph 1002.8mb 53f 55f
Wed 10/18 11:00pm 1.6ft 3s 27 34 mph 1002mb 53f 55f